sensor_id;sensor_type;location;lat;lon;timestamp;P1;durP1;ratioP1;P2;durP2;ratioP2
12425;SDS011;6277;49.824;9.562;2023-11-21T00:00:44;1.27;;;0.47;;
12425;SDS011;6277;49.824;9.562;2023-11-21T00:03:10;0.82;;;0.50;;
12425;SDS011;6277;49.824;9.562;2023-11-21T00:05:39;1.58;;;0.68;;
12425;SDS011;6277;49.824;9.562;2023-11-21T00:08:06;1.88;;;0.85;;
12425;SDS011;6277;49.824;9.562;2023-11-21T00:10:32;1.38;;;0.80;;
12425;SDS011;6277;49.824;9.562;2023-11-21T00:12:57;2.00;;;1.08;;
12425;SDS011;6277;49.824;9.562;2023-11-21T00:15:23;1.20;;;0.80;;
12425;SDS011;6277;49.824;9.562;2023-11-21T00:17:48;1.08;;;0.80;;
12425;SDS011;6277;49.824;9.562;2023-11-21T00:20:14;1.83;;;0.90;;
12425;SDS011;6277;49.824;9.562;2023-11-21T00:22:40;2.13;;;0.90;;
12425;SDS011;6277;49.824;9.562;2023-11-21T00:25:06;1.02;;;0.70;;
12425;SDS011;6277;49.824;9.562;2023-11-21T00:27:34;1.30;;;0.70;;
12425;SDS011;6277;49.824;9.562;2023-11-21T00:30:03;1.92;;;0.60;;
12425;SDS011;6277;49.824;9.562;2023-11-21T00:32:30;2.53;;;0.80;;
12425;SDS011;6277;49.824;9.562;2023-11-21T00:34:56;1.40;;;0.80;;
12425;SDS011;6277;49.824;9.562;2023-11-21T00:37:21;2.25;;;0.88;;
12425;SDS011;6277;49.824;9.562;2023-11-21T00:39:47;1.33;;;0.70;;
12425;SDS011;6277;49.824;9.562;2023-11-21T00:42:12;1.10;;;0.60;;
12425;SDS011;6277;49.824;9.562;2023-11-21T00:44:38;2.60;;;0.80;;
12425;SDS011;6277;49.824;9.562;2023-11-21T00:47:04;1.35;;;0.90;;
12425;SDS011;6277;49.824;9.562;2023-11-21T00:49:30;2.35;;;0.70;;
12425;SDS011;6277;49.824;9.562;2023-11-21T00:51:55;1.42;;;0.73;;
12425;SDS011;6277;49.824;9.562;2023-11-21T00:54:22;0.90;;;0.50;;
12425;SDS011;6277;49.824;9.562;2023-11-21T00:56:48;1.33;;;0.68;;
12425;SDS011;6277;49.824;9.562;2023-11-21T00:59:14;1.08;;;0.63;;
12425;SDS011;6277;49.824;9.562;2023-11-21T01:01:39;0.88;;;0.60;;
12425;SDS011;6277;49.824;9.562;2023-11-21T01:04:05;1.73;;;0.60;;
12425;SDS011;6277;49.824;9.562;2023-11-21T01:06:32;1.70;;;0.57;;
12425;SDS011;6277;49.824;9.562;2023-11-21T01:08:57;1.58;;;0.60;;
12425;SDS011;6277;49.824;9.562;2023-11-21T01:11:23;1.50;;;0.70;;
12425;SDS011;6277;49.824;9.562;2023-11-21T01:13:49;1.27;;;0.40;;
12425;SDS011;6277;49.824;9.562;2023-11-21T01:16:14;1.42;;;0.52;;
12425;SDS011;6277;49.824;9.562;2023-11-21T01:18:40;0.57;;;0.40;;
12425;SDS011;6277;49.824;9.562;2023-11-21T01:21:05;0.65;;;0.30;;
12425;SDS011;6277;49.824;9.562;2023-11-21T01:23:32;0.90;;;0.50;;
12425;SDS011;6277;49.824;9.562;2023-11-21T01:25:58;0.77;;;0.50;;
12425;SDS011;6277;49.824;9.562;2023-11-21T01:28:23;0.50;;;0.40;;
12425;SDS011;6277;49.824;9.562;2023-11-21T01:30:49;0.75;;;0.50;;
12425;SDS011;6277;49.824;9.562;2023-11-21T01:33:14;0.93;;;0.77;;
12425;SDS011;6277;49.824;9.562;2023-11-21T01:35:40;2.38;;;0.65;;
12425;SDS011;6277;49.824;9.562;2023-11-21T01:38:07;3.13;;;0.82;;
12425;SDS011;6277;49.824;9.562;2023-11-21T01:40:33;0.90;;;0.60;;
12425;SDS011;6277;49.824;9.562;2023-11-21T01:42:59;0.95;;;0.70;;
12425;SDS011;6277;49.824;9.562;2023-11-21T01:45:24;2.13;;;1.25;;
12425;SDS011;6277;49.824;9.562;2023-11-21T01:47:50;3.25;;;1.83;;
12425;SDS011;6277;49.824;9.562;2023-11-21T01:50:16;2.83;;;1.58;;
12425;SDS011;6277;49.824;9.562;2023-11-21T01:52:43;2.53;;;1.30;;
12425;SDS011;6277;49.824;9.562;2023-11-21T01:55:10;1.98;;;1.33;;
12425;SDS011;6277;49.824;9.562;2023-11-21T01:57:37;1.85;;;1.30;;
12425;SDS011;6277;49.824;9.562;2023-11-21T02:00:03;2.05;;;1.30;;
12425;SDS011;6277;49.824;9.562;2023-11-21T02:02:43;2.50;;;1.40;;
12425;SDS011;6277;49.824;9.562;2023-11-21T02:05:10;2.47;;;1.70;;
12425;SDS011;6277;49.824;9.562;2023-11-21T02:07:39;2.20;;;1.45;;
12425;SDS011;6277;49.824;9.562;2023-11-21T02:10:06;2.90;;;1.70;;
12425;SDS011;6277;49.824;9.562;2023-11-21T02:12:33;1.90;;;1.60;;
12425;SDS011;6277;49.824;9.562;2023-11-21T02:15:00;2.00;;;1.40;;
12425;SDS011;6277;49.824;9.562;2023-11-21T02:17:34;3.25;;;1.70;;
12425;SDS011;6277;49.824;9.562;2023-11-21T02:20:03;3.47;;;1.50;;
12425;SDS011;6277;49.824;9.562;2023-11-21T02:22:31;3.00;;;1.60;;
12425;SDS011;6277;49.824;9.562;2023-11-21T02:24:59;2.60;;;1.65;;
12425;SDS011;6277;49.824;9.562;2023-11-21T02:27:24;2.10;;;1.70;;
12425;SDS011;6277;49.824;9.562;2023-11-21T02:29:52;3.35;;;1.90;;
12425;SDS011;6277;49.824;9.562;2023-11-21T02:32:17;1.52;;;1.40;;
12425;SDS011;6277;49.824;9.562;2023-11-21T02:34:47;2.53;;;1.27;;
12425;SDS011;6277;49.824;9.562;2023-11-21T02:37:13;1.65;;;1.35;;
12425;SDS011;6277;49.824;9.562;2023-11-21T02:39:39;1.70;;;1.60;;
12425;SDS011;6277;49.824;9.562;2023-11-21T02:42:04;2.35;;;1.83;;
12425;SDS011;6277;49.824;9.562;2023-11-21T02:44:30;2.15;;;1.70;;
12425;SDS011;6277;49.824;9.562;2023-11-21T02:46:56;3.13;;;1.70;;
12425;SDS011;6277;49.824;9.562;2023-11-21T02:49:22;2.50;;;1.80;;
12425;SDS011;6277;49.824;9.562;2023-11-21T02:51:48;2.95;;;1.80;;
12425;SDS011;6277;49.824;9.562;2023-11-21T02:54:14;2.13;;;1.40;;
12425;SDS011;6277;49.824;9.562;2023-11-21T02:56:41;3.50;;;1.58;;
12425;SDS011;6277;49.824;9.562;2023-11-21T02:59:07;3.08;;;1.40;;
12425;SDS011;6277;49.824;9.562;2023-11-21T03:01:32;2.35;;;1.58;;
12425;SDS011;6277;49.824;9.562;2023-11-21T03:03:58;2.35;;;1.20;;
12425;SDS011;6277;49.824;9.562;2023-11-21T03:06:24;1.73;;;1.27;;
12425;SDS011;6277;49.824;9.562;2023-11-21T03:08:49;1.83;;;1.17;;
12425;SDS011;6277;49.824;9.562;2023-11-21T03:11:15;1.88;;;1.02;;
12425;SDS011;6277;49.824;9.562;2023-11-21T03:13:41;2.58;;;1.33;;
12425;SDS011;6277;49.824;9.562;2023-11-21T03:16:10;1.98;;;1.25;;
12425;SDS011;6277;49.824;9.562;2023-11-21T03:18:37;1.67;;;1.25;;
12425;SDS011;6277;49.824;9.562;2023-11-21T03:21:06;1.80;;;1.20;;
12425;SDS011;6277;49.824;9.562;2023-11-21T03:23:35;1.25;;;1.00;;
12425;SDS011;6277;49.824;9.562;2023-11-21T03:26:01;3.58;;;1.38;;
12425;SDS011;6277;49.824;9.562;2023-11-21T03:28:27;2.05;;;1.20;;
12425;SDS011;6277;49.824;9.562;2023-11-21T03:30:53;2.15;;;1.02;;
12425;SDS011;6277;49.824;9.562;2023-11-21T03:33:19;1.92;;;1.08;;
12425;SDS011;6277;49.824;9.562;2023-11-21T03:35:44;1.70;;;1.35;;
12425;SDS011;6277;49.824;9.562;2023-11-21T03:38:10;1.77;;;1.02;;
12425;SDS011;6277;49.824;9.562;2023-11-21T03:40:36;2.35;;;1.25;;
12425;SDS011;6277;49.824;9.562;2023-11-21T03:43:01;1.33;;;1.10;;
12425;SDS011;6277;49.824;9.562;2023-11-21T03:45:27;1.15;;;1.00;;
12425;SDS011;6277;49.824;9.562;2023-11-21T03:47:52;2.40;;;1.20;;
12425;SDS011;6277;49.824;9.562;2023-11-21T03:50:18;1.70;;;1.10;;
12425;SDS011;6277;49.824;9.562;2023-11-21T03:52:43;1.75;;;1.30;;
12425;SDS011;6277;49.824;9.562;2023-11-21T03:55:09;2.28;;;1.27;;
12425;SDS011;6277;49.824;9.562;2023-11-21T03:57:35;1.55;;;1.27;;
12425;SDS011;6277;49.824;9.562;2023-11-21T04:00:01;1.95;;;1.20;;
12425;SDS011;6277;49.824;9.562;2023-11-21T04:02:29;2.55;;;1.20;;
12425;SDS011;6277;49.824;9.562;2023-11-21T04:04:56;1.42;;;1.20;;
12425;SDS011;6277;49.824;9.562;2023-11-21T04:07:22;3.70;;;1.73;;
12425;SDS011;6277;49.824;9.562;2023-11-21T04:09:47;3.25;;;1.38;;
12425;SDS011;6277;49.824;9.562;2023-11-21T04:12:13;2.65;;;1.73;;
12425;SDS011;6277;49.824;9.562;2023-11-21T04:14:39;2.50;;;1.33;;
12425;SDS011;6277;49.824;9.562;2023-11-21T04:17:04;1.67;;;1.50;;
12425;SDS011;6277;49.824;9.562;2023-11-21T04:19:30;2.95;;;1.40;;
12425;SDS011;6277;49.824;9.562;2023-11-21T04:21:55;1.73;;;1.13;;
12425;SDS011;6277;49.824;9.562;2023-11-21T04:24:21;1.90;;;1.40;;
12425;SDS011;6277;49.824;9.562;2023-11-21T04:26:47;2.05;;;1.40;;
12425;SDS011;6277;49.824;9.562;2023-11-21T04:29:12;2.15;;;1.20;;
12425;SDS011;6277;49.824;9.562;2023-11-21T04:31:38;2.55;;;1.52;;
12425;SDS011;6277;49.824;9.562;2023-11-21T04:34:03;1.83;;;1.35;;
12425;SDS011;6277;49.824;9.562;2023-11-21T04:36:29;2.20;;;1.40;;
12425;SDS011;6277;49.824;9.562;2023-11-21T04:38:56;1.50;;;1.10;;
12425;SDS011;6277;49.824;9.562;2023-11-21T04:41:22;2.20;;;1.00;;
12425;SDS011;6277;49.824;9.562;2023-11-21T04:43:47;1.85;;;1.45;;
12425;SDS011;6277;49.824;9.562;2023-11-21T04:46:14;2.53;;;1.55;;
12425;SDS011;6277;49.824;9.562;2023-11-21T04:48:39;1.95;;;1.33;;
12425;SDS011;6277;49.824;9.562;2023-11-21T04:51:05;1.38;;;1.10;;
12425;SDS011;6277;49.824;9.562;2023-11-21T04:53:31;2.90;;;1.58;;
12425;SDS011;6277;49.824;9.562;2023-11-21T04:55:57;2.60;;;1.63;;
12425;SDS011;6277;49.824;9.562;2023-11-21T04:58:22;2.00;;;1.40;;
12425;SDS011;6277;49.824;9.562;2023-11-21T05:00:48;2.42;;;1.75;;
12425;SDS011;6277;49.824;9.562;2023-11-21T05:03:14;2.60;;;1.83;;
12425;SDS011;6277;49.824;9.562;2023-11-21T05:05:40;3.35;;;2.13;;
12425;SDS011;6277;49.824;9.562;2023-11-21T05:08:05;2.47;;;1.85;;
12425;SDS011;6277;49.824;9.562;2023-11-21T05:10:31;4.35;;;2.50;;
12425;SDS011;6277;49.824;9.562;2023-11-21T05:12:56;4.68;;;2.15;;
12425;SDS011;6277;49.824;9.562;2023-11-21T05:15:23;3.50;;;2.47;;
12425;SDS011;6277;49.824;9.562;2023-11-21T05:17:49;3.13;;;2.70;;
12425;SDS011;6277;49.824;9.562;2023-11-21T05:20:17;7.32;;;2.63;;
12425;SDS011;6277;49.824;9.562;2023-11-21T05:22:45;4.28;;;2.50;;
12425;SDS011;6277;49.824;9.562;2023-11-21T05:25:13;3.70;;;2.88;;
12425;SDS011;6277;49.824;9.562;2023-11-21T05:27:38;7.88;;;2.63;;
12425;SDS011;6277;49.824;9.562;2023-11-21T05:30:04;6.25;;;3.35;;
12425;SDS011;6277;49.824;9.562;2023-11-21T05:32:31;10.63;;;3.58;;
12425;SDS011;6277;49.824;9.562;2023-11-21T05:34:57;8.57;;;3.45;;
12425;SDS011;6277;49.824;9.562;2023-11-21T05:37:22;5.60;;;3.58;;
12425;SDS011;6277;49.824;9.562;2023-11-21T05:39:48;6.28;;;3.65;;
12425;SDS011;6277;49.824;9.562;2023-11-21T05:42:14;9.10;;;3.83;;
12425;SDS011;6277;49.824;9.562;2023-11-21T05:44:43;5.45;;;3.95;;
12425;SDS011;6277;49.824;9.562;2023-11-21T05:47:09;5.28;;;3.78;;
12425;SDS011;6277;49.824;9.562;2023-11-21T05:49:35;7.57;;;4.63;;
12425;SDS011;6277;49.824;9.562;2023-11-21T05:52:01;6.35;;;4.32;;
12425;SDS011;6277;49.824;9.562;2023-11-21T05:54:26;11.93;;;4.65;;
12425;SDS011;6277;49.824;9.562;2023-11-21T05:56:52;6.85;;;4.50;;
12425;SDS011;6277;49.824;9.562;2023-11-21T05:59:17;8.25;;;4.47;;
12425;SDS011;6277;49.824;9.562;2023-11-21T06:01:43;8.23;;;4.22;;
12425;SDS011;6277;49.824;9.562;2023-11-21T06:04:10;5.55;;;4.25;;
12425;SDS011;6277;49.824;9.562;2023-11-21T06:06:36;6.82;;;4.75;;
12425;SDS011;6277;49.824;9.562;2023-11-21T06:09:02;5.40;;;3.97;;
12425;SDS011;6277;49.824;9.562;2023-11-21T06:11:27;7.38;;;4.53;;
12425;SDS011;6277;49.824;9.562;2023-11-21T06:13:53;6.10;;;4.32;;
12425;SDS011;6277;49.824;9.562;2023-11-21T06:16:19;7.15;;;4.30;;
12425;SDS011;6277;49.824;9.562;2023-11-21T06:18:47;6.15;;;4.30;;
12425;SDS011;6277;49.824;9.562;2023-11-21T06:21:13;6.70;;;4.22;;
12425;SDS011;6277;49.824;9.562;2023-11-21T06:23:39;6.10;;;3.92;;
12425;SDS011;6277;49.824;9.562;2023-11-21T06:26:04;5.93;;;3.75;;
12425;SDS011;6277;49.824;9.562;2023-11-21T06:28:31;5.53;;;3.53;;
12425;SDS011;6277;49.824;9.562;2023-11-21T06:30:57;7.32;;;4.18;;
12425;SDS011;6277;49.824;9.562;2023-11-21T06:33:30;6.38;;;4.40;;
12425;SDS011;6277;49.824;9.562;2023-11-21T06:35:58;6.43;;;4.28;;
12425;SDS011;6277;49.824;9.562;2023-11-21T06:38:28;7.50;;;5.05;;
12425;SDS011;6277;49.824;9.562;2023-11-21T06:40:55;6.63;;;4.72;;
12425;SDS011;6277;49.824;9.562;2023-11-21T06:43:22;5.93;;;4.47;;
12425;SDS011;6277;49.824;9.562;2023-11-21T06:45:47;6.50;;;4.32;;
12425;SDS011;6277;49.824;9.562;2023-11-21T06:48:13;6.78;;;4.45;;
12425;SDS011;6277;49.824;9.562;2023-11-21T06:50:38;5.45;;;4.18;;
12425;SDS011;6277;49.824;9.562;2023-11-21T06:53:04;6.68;;;4.07;;
12425;SDS011;6277;49.824;9.562;2023-11-21T06:55:32;7.18;;;4.20;;
12425;SDS011;6277;49.824;9.562;2023-11-21T06:57:57;5.97;;;3.90;;
12425;SDS011;6277;49.824;9.562;2023-11-21T07:00:23;5.85;;;4.35;;
12425;SDS011;6277;49.824;9.562;2023-11-21T07:02:49;5.93;;;3.92;;
12425;SDS011;6277;49.824;9.562;2023-11-21T07:05:14;7.97;;;4.22;;
12425;SDS011;6277;49.824;9.562;2023-11-21T07:07:40;7.10;;;4.45;;
12425;SDS011;6277;49.824;9.562;2023-11-21T07:10:06;6.95;;;4.60;;
12425;SDS011;6277;49.824;9.562;2023-11-21T07:12:33;6.68;;;4.50;;
12425;SDS011;6277;49.824;9.562;2023-11-21T07:14:59;6.28;;;4.38;;
12425;SDS011;6277;49.824;9.562;2023-11-21T07:17:25;6.28;;;4.70;;
12425;SDS011;6277;49.824;9.562;2023-11-21T07:19:50;10.00;;;5.07;;
12425;SDS011;6277;49.824;9.562;2023-11-21T07:22:16;8.70;;;5.82;;
12425;SDS011;6277;49.824;9.562;2023-11-21T07:24:49;8.10;;;5.85;;
12425;SDS011;6277;49.824;9.562;2023-11-21T07:27:15;8.65;;;5.70;;
12425;SDS011;6277;49.824;9.562;2023-11-21T07:29:41;8.48;;;5.63;;
12425;SDS011;6277;49.824;9.562;2023-11-21T07:32:07;7.40;;;5.28;;
12425;SDS011;6277;49.824;9.562;2023-11-21T07:34:34;7.50;;;5.05;;
12425;SDS011;6277;49.824;9.562;2023-11-21T07:37:00;7.05;;;5.18;;
12425;SDS011;6277;49.824;9.562;2023-11-21T07:39:25;7.55;;;5.18;;
12425;SDS011;6277;49.824;9.562;2023-11-21T07:41:51;7.13;;;4.82;;
12425;SDS011;6277;49.824;9.562;2023-11-21T07:44:16;9.88;;;6.20;;
12425;SDS011;6277;49.824;9.562;2023-11-21T07:46:42;8.82;;;5.97;;
12425;SDS011;6277;49.824;9.562;2023-11-21T07:49:08;11.10;;;6.72;;
12425;SDS011;6277;49.824;9.562;2023-11-21T07:51:34;10.85;;;6.57;;
12425;SDS011;6277;49.824;9.562;2023-11-21T07:53:59;9.02;;;5.80;;
12425;SDS011;6277;49.824;9.562;2023-11-21T07:56:25;8.88;;;5.68;;
12425;SDS011;6277;49.824;9.562;2023-11-21T07:58:51;8.38;;;5.75;;
12425;SDS011;6277;49.824;9.562;2023-11-21T08:01:17;7.75;;;5.45;;
12425;SDS011;6277;49.824;9.562;2023-11-21T08:03:42;7.28;;;5.15;;
12425;SDS011;6277;49.824;9.562;2023-11-21T08:06:09;7.50;;;4.65;;
12425;SDS011;6277;49.824;9.562;2023-11-21T08:08:34;6.55;;;4.60;;
12425;SDS011;6277;49.824;9.562;2023-11-21T08:11:00;7.30;;;4.55;;
12425;SDS011;6277;49.824;9.562;2023-11-21T08:13:27;9.18;;;5.55;;
12425;SDS011;6277;49.824;9.562;2023-11-21T08:15:55;8.70;;;5.40;;
12425;SDS011;6277;49.824;9.562;2023-11-21T08:18:23;7.10;;;4.70;;
12425;SDS011;6277;49.824;9.562;2023-11-21T08:20:49;6.68;;;4.07;;
12425;SDS011;6277;49.824;9.562;2023-11-21T08:23:17;5.95;;;4.32;;
12425;SDS011;6277;49.824;9.562;2023-11-21T08:25:43;5.93;;;4.30;;
12425;SDS011;6277;49.824;9.562;2023-11-21T08:28:09;5.50;;;4.13;;
12425;SDS011;6277;49.824;9.562;2023-11-21T08:30:35;5.32;;;3.70;;
12425;SDS011;6277;49.824;9.562;2023-11-21T08:33:00;6.15;;;3.88;;
12425;SDS011;6277;49.824;9.562;2023-11-21T08:35:28;3.95;;;3.25;;
12425;SDS011;6277;49.824;9.562;2023-11-21T08:37:53;4.80;;;3.50;;
12425;SDS011;6277;49.824;9.562;2023-11-21T08:40:20;4.30;;;3.40;;
12425;SDS011;6277;49.824;9.562;2023-11-21T08:42:46;4.07;;;3.33;;
12425;SDS011;6277;49.824;9.562;2023-11-21T08:45:12;4.95;;;3.70;;
12425;SDS011;6277;49.824;9.562;2023-11-21T08:47:39;4.40;;;3.22;;
12425;SDS011;6277;49.824;9.562;2023-11-21T08:50:07;4.07;;;3.47;;
12425;SDS011;6277;49.824;9.562;2023-11-21T08:52:34;4.53;;;3.35;;
12425;SDS011;6277;49.824;9.562;2023-11-21T08:54:59;3.83;;;3.22;;
12425;SDS011;6277;49.824;9.562;2023-11-21T08:57:32;4.32;;;3.50;;
12425;SDS011;6277;49.824;9.562;2023-11-21T08:59:58;4.55;;;3.42;;
12425;SDS011;6277;49.824;9.562;2023-11-21T09:02:27;4.70;;;3.40;;
12425;SDS011;6277;49.824;9.562;2023-11-21T09:04:53;3.75;;;3.35;;
12425;SDS011;6277;49.824;9.562;2023-11-21T09:07:19;3.70;;;2.90;;
12425;SDS011;6277;49.824;9.562;2023-11-21T09:09:45;3.33;;;2.72;;
12425;SDS011;6277;49.824;9.562;2023-11-21T09:12:11;3.78;;;2.90;;
12425;SDS011;6277;49.824;9.562;2023-11-21T09:14:37;4.40;;;2.50;;
12425;SDS011;6277;49.824;9.562;2023-11-21T09:17:04;3.38;;;2.50;;
12425;SDS011;6277;49.824;9.562;2023-11-21T09:19:35;3.00;;;2.42;;
12425;SDS011;6277;49.824;9.562;2023-11-21T09:22:04;3.75;;;2.22;;
12425;SDS011;6277;49.824;9.562;2023-11-21T09:24:30;3.13;;;2.40;;
12425;SDS011;6277;49.824;9.562;2023-11-21T09:26:56;3.80;;;3.00;;
12425;SDS011;6277;49.824;9.562;2023-11-21T09:29:22;4.18;;;2.67;;
12425;SDS011;6277;49.824;9.562;2023-11-21T09:31:47;3.22;;;2.30;;
12425;SDS011;6277;49.824;9.562;2023-11-21T09:34:16;2.50;;;2.30;;
12425;SDS011;6277;49.824;9.562;2023-11-21T09:36:41;3.58;;;2.65;;
12425;SDS011;6277;49.824;9.562;2023-11-21T09:39:10;2.88;;;2.58;;
12425;SDS011;6277;49.824;9.562;2023-11-21T09:41:51;2.63;;;2.30;;
12425;SDS011;6277;49.824;9.562;2023-11-21T09:47:23;1.85;;;1.65;;
12425;SDS011;6277;49.824;9.562;2023-11-21T09:49:50;3.00;;;1.90;;
12425;SDS011;6277;49.824;9.562;2023-11-21T09:52:25;1.92;;;1.48;;
12425;SDS011;6277;49.824;9.562;2023-11-21T09:54:51;1.40;;;1.30;;
12425;SDS011;6277;49.824;9.562;2023-11-21T09:57:19;2.38;;;1.60;;
12425;SDS011;6277;49.824;9.562;2023-11-21T09:59:46;2.58;;;1.40;;
12425;SDS011;6277;49.824;9.562;2023-11-21T10:02:15;2.70;;;1.50;;
12425;SDS011;6277;49.824;9.562;2023-11-21T10:04:43;2.65;;;1.60;;
12425;SDS011;6277;49.824;9.562;2023-11-21T10:07:10;1.55;;;1.30;;
12425;SDS011;6277;49.824;9.562;2023-11-21T10:09:40;2.03;;;1.60;;
12425;SDS011;6277;49.824;9.562;2023-11-21T10:12:06;2.00;;;1.30;;
12425;SDS011;6277;49.824;9.562;2023-11-21T10:14:34;2.72;;;1.00;;
12425;SDS011;6277;49.824;9.562;2023-11-21T10:17:06;1.83;;;1.23;;
12425;SDS011;6277;49.824;9.562;2023-11-21T10:19:33;2.75;;;1.48;;
12425;SDS011;6277;49.824;9.562;2023-11-21T10:22:01;1.67;;;1.17;;
12425;SDS011;6277;49.824;9.562;2023-11-21T10:24:28;2.35;;;1.30;;
12425;SDS011;6277;49.824;9.562;2023-11-21T10:26:54;1.92;;;1.05;;
12425;SDS011;6277;49.824;9.562;2023-11-21T10:29:19;3.00;;;1.20;;
12425;SDS011;6277;49.824;9.562;2023-11-21T10:31:48;2.17;;;1.13;;
12425;SDS011;6277;49.824;9.562;2023-11-21T10:34:18;2.25;;;1.15;;
12425;SDS011;6277;49.824;9.562;2023-11-21T10:36:45;3.17;;;1.17;;
12425;SDS011;6277;49.824;9.562;2023-11-21T10:39:16;1.85;;;0.90;;
12425;SDS011;6277;49.824;9.562;2023-11-21T10:41:45;1.85;;;0.90;;
12425;SDS011;6277;49.824;9.562;2023-11-21T10:44:15;1.15;;;0.80;;
12425;SDS011;6277;49.824;9.562;2023-11-21T10:46:49;1.23;;;0.80;;
12425;SDS011;6277;49.824;9.562;2023-11-21T10:49:21;1.50;;;0.80;;
12425;SDS011;6277;49.824;9.562;2023-11-21T10:51:50;1.17;;;0.77;;
12425;SDS011;6277;49.824;9.562;2023-11-21T10:54:18;1.65;;;0.98;;
12425;SDS011;6277;49.824;9.562;2023-11-21T10:56:45;1.55;;;1.08;;
12425;SDS011;6277;49.824;9.562;2023-11-21T10:59:13;1.27;;;0.90;;
12425;SDS011;6277;49.824;9.562;2023-11-21T11:01:41;2.03;;;0.88;;
12425;SDS011;6277;49.824;9.562;2023-11-21T11:04:09;1.90;;;1.00;;
12425;SDS011;6277;49.824;9.562;2023-11-21T11:06:44;2.58;;;0.95;;
12425;SDS011;6277;49.824;9.562;2023-11-21T11:09:13;1.80;;;1.30;;
12425;SDS011;6277;49.824;9.562;2023-11-21T11:11:39;2.88;;;1.60;;
12425;SDS011;6277;49.824;9.562;2023-11-21T11:14:07;1.90;;;1.30;;
12425;SDS011;6277;49.824;9.562;2023-11-21T11:16:36;2.67;;;1.45;;
12425;SDS011;6277;49.824;9.562;2023-11-21T11:19:04;4.38;;;2.20;;
12425;SDS011;6277;49.824;9.562;2023-11-21T11:24:10;2.40;;;1.50;;
12425;SDS011;6277;49.824;9.562;2023-11-21T11:32:12;2.17;;;0.73;;
12425;SDS011;6277;49.824;9.562;2023-11-21T11:35:05;1.83;;;0.80;;
12425;SDS011;6277;49.824;9.562;2023-11-21T11:37:41;1.08;;;0.70;;
12425;SDS011;6277;49.824;9.562;2023-11-21T11:40:07;1.15;;;0.60;;
12425;SDS011;6277;49.824;9.562;2023-11-21T11:42:36;0.77;;;0.60;;
12425;SDS011;6277;49.824;9.562;2023-11-21T11:45:01;1.50;;;0.82;;
12425;SDS011;6277;49.824;9.562;2023-11-21T11:47:32;1.30;;;0.85;;
12425;SDS011;6277;49.824;9.562;2023-11-21T11:52:51;1.20;;;0.60;;
12425;SDS011;6277;49.824;9.562;2023-11-21T11:55:20;1.50;;;0.70;;
12425;SDS011;6277;49.824;9.562;2023-11-21T11:57:51;1.08;;;0.70;;
12425;SDS011;6277;49.824;9.562;2023-11-21T12:02:57;1.38;;;0.60;;
12425;SDS011;6277;49.824;9.562;2023-11-21T12:05:24;1.13;;;0.43;;
12425;SDS011;6277;49.824;9.562;2023-11-21T12:10:22;1.75;;;0.55;;
12425;SDS011;6277;49.824;9.562;2023-11-21T12:12:54;0.60;;;0.40;;
12425;SDS011;6277;49.824;9.562;2023-11-21T12:15:20;1.20;;;0.70;;
12425;SDS011;6277;49.824;9.562;2023-11-21T12:17:46;1.75;;;0.50;;
12425;SDS011;6277;49.824;9.562;2023-11-21T12:20:14;0.98;;;0.50;;
12425;SDS011;6277;49.824;9.562;2023-11-21T12:22:56;1.73;;;0.57;;
12425;SDS011;6277;49.824;9.562;2023-11-21T12:25:29;0.98;;;0.57;;
12425;SDS011;6277;49.824;9.562;2023-11-21T12:27:57;1.25;;;0.50;;
12425;SDS011;6277;49.824;9.562;2023-11-21T12:30:28;1.77;;;0.60;;
12425;SDS011;6277;49.824;9.562;2023-11-21T12:32:56;1.65;;;0.65;;
12425;SDS011;6277;49.824;9.562;2023-11-21T12:35:26;2.38;;;0.60;;
12425;SDS011;6277;49.824;9.562;2023-11-21T12:37:54;1.52;;;0.60;;
12425;SDS011;6277;49.824;9.562;2023-11-21T12:40:22;1.20;;;0.70;;
12425;SDS011;6277;49.824;9.562;2023-11-21T12:42:48;1.75;;;0.65;;
12425;SDS011;6277;49.824;9.562;2023-11-21T12:47:48;0.73;;;0.45;;
12425;SDS011;6277;49.824;9.562;2023-11-21T12:50:17;2.33;;;1.00;;
12425;SDS011;6277;49.824;9.562;2023-11-21T12:52:46;3.17;;;1.33;;
12425;SDS011;6277;49.824;9.562;2023-11-21T12:55:21;7.07;;;2.85;;
12425;SDS011;6277;49.824;9.562;2023-11-21T12:57:52;7.88;;;3.38;;
12425;SDS011;6277;49.824;9.562;2023-11-21T13:00:19;4.45;;;2.05;;
12425;SDS011;6277;49.824;9.562;2023-11-21T13:02:55;2.60;;;1.30;;
12425;SDS011;6277;49.824;9.562;2023-11-21T13:05:35;4.10;;;1.38;;
12425;SDS011;6277;49.824;9.562;2023-11-21T13:08:07;2.05;;;1.10;;
12425;SDS011;6277;49.824;9.562;2023-11-21T13:10:35;2.65;;;1.30;;
12425;SDS011;6277;49.824;9.562;2023-11-21T13:13:02;2.45;;;0.95;;
12425;SDS011;6277;49.824;9.562;2023-11-21T13:15:30;1.20;;;0.70;;
12425;SDS011;6277;49.824;9.562;2023-11-21T13:17:57;1.67;;;0.55;;
12425;SDS011;6277;49.824;9.562;2023-11-21T13:20:24;0.98;;;0.50;;
12425;SDS011;6277;49.824;9.562;2023-11-21T13:22:54;1.90;;;1.20;;
12425;SDS011;6277;49.824;9.562;2023-11-21T13:25:26;2.28;;;1.05;;
12425;SDS011;6277;49.824;9.562;2023-11-21T13:27:56;2.20;;;0.98;;
12425;SDS011;6277;49.824;9.562;2023-11-21T13:30:23;2.05;;;0.80;;
12425;SDS011;6277;49.824;9.562;2023-11-21T13:32:58;3.85;;;1.60;;
12425;SDS011;6277;49.824;9.562;2023-11-21T13:35:27;2.10;;;1.13;;
12425;SDS011;6277;49.824;9.562;2023-11-21T13:37:57;2.90;;;1.45;;
12425;SDS011;6277;49.824;9.562;2023-11-21T13:40:31;5.80;;;2.85;;
12425;SDS011;6277;49.824;9.562;2023-11-21T13:42:59;9.15;;;3.92;;
12425;SDS011;6277;49.824;9.562;2023-11-21T13:45:29;9.40;;;4.35;;
12425;SDS011;6277;49.824;9.562;2023-11-21T13:47:55;5.47;;;2.75;;
12425;SDS011;6277;49.824;9.562;2023-11-21T13:50:25;3.20;;;1.48;;
12425;SDS011;6277;49.824;9.562;2023-11-21T13:52:58;2.88;;;1.55;;
12425;SDS011;6277;49.824;9.562;2023-11-21T13:55:29;4.10;;;1.50;;
12425;SDS011;6277;49.824;9.562;2023-11-21T13:57:54;4.35;;;1.33;;
12425;SDS011;6277;49.824;9.562;2023-11-21T14:00:20;2.97;;;1.30;;
12425;SDS011;6277;49.824;9.562;2023-11-21T14:03:10;2.33;;;1.15;;
12425;SDS011;6277;49.824;9.562;2023-11-21T14:05:44;3.35;;;1.30;;
12425;SDS011;6277;49.824;9.562;2023-11-21T14:08:12;2.75;;;1.20;;
12425;SDS011;6277;49.824;9.562;2023-11-21T14:10:41;2.88;;;0.90;;
12425;SDS011;6277;49.824;9.562;2023-11-21T14:13:15;2.30;;;1.00;;
12425;SDS011;6277;49.824;9.562;2023-11-21T14:15:44;3.80;;;1.27;;
12425;SDS011;6277;49.824;9.562;2023-11-21T14:18:11;3.45;;;1.38;;
12425;SDS011;6277;49.824;9.562;2023-11-21T14:20:39;7.13;;;1.10;;
12425;SDS011;6277;49.824;9.562;2023-11-21T14:23:06;1.70;;;0.90;;
12425;SDS011;6277;49.824;9.562;2023-11-21T14:25:32;2.53;;;1.20;;
12425;SDS011;6277;49.824;9.562;2023-11-21T14:27:59;2.67;;;1.10;;
12425;SDS011;6277;49.824;9.562;2023-11-21T14:30:25;5.40;;;1.23;;
12425;SDS011;6277;49.824;9.562;2023-11-21T14:32:52;3.33;;;0.90;;
12425;SDS011;6277;49.824;9.562;2023-11-21T14:35:17;3.10;;;0.98;;
12425;SDS011;6277;49.824;9.562;2023-11-21T14:37:43;3.88;;;1.60;;
12425;SDS011;6277;49.824;9.562;2023-11-21T14:40:09;2.63;;;1.30;;
12425;SDS011;6277;49.824;9.562;2023-11-21T14:42:35;2.83;;;1.40;;
12425;SDS011;6277;49.824;9.562;2023-11-21T14:45:04;3.55;;;1.50;;
12425;SDS011;6277;49.824;9.562;2023-11-21T14:47:32;2.22;;;1.23;;
12425;SDS011;6277;49.824;9.562;2023-11-21T14:49:59;5.07;;;1.30;;
12425;SDS011;6277;49.824;9.562;2023-11-21T14:52:31;3.30;;;1.13;;
12425;SDS011;6277;49.824;9.562;2023-11-21T14:55:00;5.72;;;1.60;;
12425;SDS011;6277;49.824;9.562;2023-11-21T14:57:56;4.43;;;1.90;;
12425;SDS011;6277;49.824;9.562;2023-11-21T15:00:21;4.55;;;2.10;;
12425;SDS011;6277;49.824;9.562;2023-11-21T15:02:59;12.32;;;3.03;;
12425;SDS011;6277;49.824;9.562;2023-11-21T15:05:25;11.30;;;3.05;;
12425;SDS011;6277;49.824;9.562;2023-11-21T15:07:52;6.50;;;2.35;;
12425;SDS011;6277;49.824;9.562;2023-11-21T15:10:21;7.97;;;2.22;;
12425;SDS011;6277;49.824;9.562;2023-11-21T15:12:54;5.80;;;2.63;;
12425;SDS011;6277;49.824;9.562;2023-11-21T15:15:21;8.02;;;2.60;;
12425;SDS011;6277;49.824;9.562;2023-11-21T15:17:46;7.15;;;2.38;;
12425;SDS011;6277;49.824;9.562;2023-11-21T15:20:12;6.78;;;2.80;;
12425;SDS011;6277;49.824;9.562;2023-11-21T15:22:44;4.35;;;2.08;;